sensor_id;sensor_type;location;lat;lon;timestamp;P1;durP1;ratioP1;P2;durP2;ratioP2
253;SDS011;590;48.772;8.846;2023-05-07T00:01:04;3.77;;;3.57;;
253;SDS011;590;48.772;8.846;2023-05-07T00:03:33;3.40;;;3.20;;
253;SDS011;590;48.772;8.846;2023-05-07T00:06:01;3.93;;;3.70;;
253;SDS011;590;48.772;8.846;2023-05-07T00:08:29;3.50;;;3.30;;
253;SDS011;590;48.772;8.846;2023-05-07T00:10:57;3.43;;;3.23;;
253;SDS011;590;48.772;8.846;2023-05-07T00:13:25;3.30;;;3.10;;
253;SDS011;590;48.772;8.846;2023-05-07T00:15:55;3.27;;;3.07;;
253;SDS011;590;48.772;8.846;2023-05-07T00:18:23;3.60;;;3.40;;
253;SDS011;590;48.772;8.846;2023-05-07T00:20:51;2.97;;;2.77;;
253;SDS011;590;48.772;8.846;2023-05-07T00:23:19;3.30;;;3.10;;
253;SDS011;590;48.772;8.846;2023-05-07T00:25:47;3.30;;;3.10;;
253;SDS011;590;48.772;8.846;2023-05-07T00:28:15;3.70;;;3.30;;
253;SDS011;590;48.772;8.846;2023-05-07T00:30:43;3.60;;;3.40;;
253;SDS011;590;48.772;8.846;2023-05-07T00:33:12;3.20;;;3.00;;
253;SDS011;590;48.772;8.846;2023-05-07T00:35:41;3.47;;;3.17;;
253;SDS011;590;48.772;8.846;2023-05-07T00:38:09;3.17;;;2.97;;
253;SDS011;590;48.772;8.846;2023-05-07T00:40:37;3.30;;;3.10;;
253;SDS011;590;48.772;8.846;2023-05-07T00:43:05;3.43;;;3.17;;
253;SDS011;590;48.772;8.846;2023-05-07T00:45:33;3.47;;;3.23;;
253;SDS011;590;48.772;8.846;2023-05-07T00:48:01;4.07;;;3.87;;
253;SDS011;590;48.772;8.846;2023-05-07T00:50:32;3.83;;;3.63;;
253;SDS011;590;48.772;8.846;2023-05-07T00:53:00;3.87;;;3.67;;
253;SDS011;590;48.772;8.846;2023-05-07T00:55:28;3.63;;;3.20;;
253;SDS011;590;48.772;8.846;2023-05-07T00:57:56;4.50;;;3.50;;
253;SDS011;590;48.772;8.846;2023-05-07T01:00:24;4.07;;;3.87;;
253;SDS011;590;48.772;8.846;2023-05-07T01:02:53;3.50;;;3.30;;
253;SDS011;590;48.772;8.846;2023-05-07T01:05:21;3.43;;;3.23;;
253;SDS011;590;48.772;8.846;2023-05-07T01:07:53;3.87;;;3.67;;
253;SDS011;590;48.772;8.846;2023-05-07T01:10:22;3.90;;;3.70;;
253;SDS011;590;48.772;8.846;2023-05-07T01:12:50;3.70;;;3.50;;
253;SDS011;590;48.772;8.846;2023-05-07T01:15:19;3.80;;;3.60;;
253;SDS011;590;48.772;8.846;2023-05-07T01:17:47;3.90;;;3.53;;
253;SDS011;590;48.772;8.846;2023-05-07T01:20:15;4.03;;;3.83;;
253;SDS011;590;48.772;8.846;2023-05-07T01:22:46;3.60;;;3.40;;
253;SDS011;590;48.772;8.846;2023-05-07T01:25:14;3.73;;;3.40;;
253;SDS011;590;48.772;8.846;2023-05-07T01:27:43;4.00;;;3.80;;
253;SDS011;590;48.772;8.846;2023-05-07T01:30:11;3.70;;;3.50;;
253;SDS011;590;48.772;8.846;2023-05-07T01:32:40;3.30;;;3.10;;
253;SDS011;590;48.772;8.846;2023-05-07T01:35:11;4.23;;;3.97;;
253;SDS011;590;48.772;8.846;2023-05-07T01:37:41;4.80;;;4.50;;
253;SDS011;590;48.772;8.846;2023-05-07T01:40:10;4.13;;;3.80;;
253;SDS011;590;48.772;8.846;2023-05-07T01:42:39;3.27;;;3.07;;
253;SDS011;590;48.772;8.846;2023-05-07T01:45:09;4.10;;;3.10;;
253;SDS011;590;48.772;8.846;2023-05-07T01:47:37;3.13;;;2.93;;
253;SDS011;590;48.772;8.846;2023-05-07T01:50:06;2.87;;;2.67;;
253;SDS011;590;48.772;8.846;2023-05-07T01:52:36;6.00;;;3.60;;
253;SDS011;590;48.772;8.846;2023-05-07T01:55:06;3.53;;;3.00;;
253;SDS011;590;48.772;8.846;2023-05-07T01:57:35;3.73;;;3.53;;
253;SDS011;590;48.772;8.846;2023-05-07T02:00:04;3.70;;;3.50;;
253;SDS011;590;48.772;8.846;2023-05-07T02:02:33;3.63;;;3.43;;
253;SDS011;590;48.772;8.846;2023-05-07T02:05:01;4.13;;;3.90;;
253;SDS011;590;48.772;8.846;2023-05-07T02:07:29;5.20;;;3.90;;
253;SDS011;590;48.772;8.846;2023-05-07T02:09:57;4.50;;;3.53;;
253;SDS011;590;48.772;8.846;2023-05-07T02:12:25;4.53;;;3.80;;
253;SDS011;590;48.772;8.846;2023-05-07T02:14:54;3.73;;;3.53;;
253;SDS011;590;48.772;8.846;2023-05-07T02:17:22;3.70;;;3.50;;
253;SDS011;590;48.772;8.846;2023-05-07T02:19:50;3.80;;;3.60;;
253;SDS011;590;48.772;8.846;2023-05-07T02:22:18;3.60;;;3.40;;
253;SDS011;590;48.772;8.846;2023-05-07T02:24:46;3.73;;;3.53;;
253;SDS011;590;48.772;8.846;2023-05-07T02:27:14;3.77;;;3.57;;
253;SDS011;590;48.772;8.846;2023-05-07T02:29:42;6.83;;;3.40;;
253;SDS011;590;48.772;8.846;2023-05-07T02:32:11;3.60;;;3.40;;
253;SDS011;590;48.772;8.846;2023-05-07T02:34:39;4.20;;;3.50;;
253;SDS011;590;48.772;8.846;2023-05-07T02:37:07;3.37;;;3.17;;
253;SDS011;590;48.772;8.846;2023-05-07T02:39:35;4.03;;;3.83;;
253;SDS011;590;48.772;8.846;2023-05-07T02:42:03;4.47;;;3.73;;
253;SDS011;590;48.772;8.846;2023-05-07T02:44:31;4.77;;;3.90;;
253;SDS011;590;48.772;8.846;2023-05-07T02:46:59;4.30;;;4.00;;
253;SDS011;590;48.772;8.846;2023-05-07T02:49:28;3.40;;;3.20;;
253;SDS011;590;48.772;8.846;2023-05-07T02:51:56;4.37;;;4.07;;
253;SDS011;590;48.772;8.846;2023-05-07T02:54:24;3.50;;;3.30;;
253;SDS011;590;48.772;8.846;2023-05-07T02:56:52;3.50;;;3.30;;
253;SDS011;590;48.772;8.846;2023-05-07T02:59:20;3.83;;;3.70;;
253;SDS011;590;48.772;8.846;2023-05-07T03:01:48;4.37;;;4.00;;
253;SDS011;590;48.772;8.846;2023-05-07T03:04:16;5.97;;;4.73;;
253;SDS011;590;48.772;8.846;2023-05-07T03:06:46;3.83;;;3.63;;
253;SDS011;590;48.772;8.846;2023-05-07T03:09:14;3.60;;;3.40;;
253;SDS011;590;48.772;8.846;2023-05-07T03:11:42;3.57;;;3.37;;
253;SDS011;590;48.772;8.846;2023-05-07T03:14:10;3.77;;;3.57;;
253;SDS011;590;48.772;8.846;2023-05-07T03:16:39;3.90;;;3.70;;
253;SDS011;590;48.772;8.846;2023-05-07T03:19:07;4.00;;;3.73;;
253;SDS011;590;48.772;8.846;2023-05-07T03:21:35;3.30;;;3.10;;
253;SDS011;590;48.772;8.846;2023-05-07T03:24:05;4.23;;;3.97;;
253;SDS011;590;48.772;8.846;2023-05-07T03:26:33;3.57;;;3.37;;
253;SDS011;590;48.772;8.846;2023-05-07T03:29:01;4.57;;;4.27;;
253;SDS011;590;48.772;8.846;2023-05-07T03:31:29;4.10;;;3.33;;
253;SDS011;590;48.772;8.846;2023-05-07T03:33:58;3.50;;;3.30;;
253;SDS011;590;48.772;8.846;2023-05-07T03:36:26;3.27;;;3.07;;
253;SDS011;590;48.772;8.846;2023-05-07T03:38:54;3.43;;;3.23;;
253;SDS011;590;48.772;8.846;2023-05-07T03:41:23;3.60;;;3.40;;
253;SDS011;590;48.772;8.846;2023-05-07T03:43:52;3.70;;;2.90;;
253;SDS011;590;48.772;8.846;2023-05-07T03:46:20;3.50;;;3.30;;
253;SDS011;590;48.772;8.846;2023-05-07T03:48:48;3.20;;;3.00;;
253;SDS011;590;48.772;8.846;2023-05-07T03:51:15;3.73;;;3.20;;
253;SDS011;590;48.772;8.846;2023-05-07T03:53:43;3.43;;;3.23;;
253;SDS011;590;48.772;8.846;2023-05-07T03:56:11;3.47;;;3.27;;
253;SDS011;590;48.772;8.846;2023-05-07T03:58:41;3.73;;;3.53;;
253;SDS011;590;48.772;8.846;2023-05-07T04:01:08;4.63;;;4.07;;
253;SDS011;590;48.772;8.846;2023-05-07T04:03:36;3.70;;;3.50;;
253;SDS011;590;48.772;8.846;2023-05-07T04:06:05;3.97;;;3.77;;
253;SDS011;590;48.772;8.846;2023-05-07T04:08:33;3.53;;;3.33;;
253;SDS011;590;48.772;8.846;2023-05-07T04:11:01;3.50;;;3.30;;
253;SDS011;590;48.772;8.846;2023-05-07T04:13:29;3.97;;;3.73;;
253;SDS011;590;48.772;8.846;2023-05-07T04:16:00;3.33;;;3.13;;
253;SDS011;590;48.772;8.846;2023-05-07T04:18:29;3.57;;;3.37;;
253;SDS011;590;48.772;8.846;2023-05-07T04:20:57;3.57;;;3.37;;
253;SDS011;590;48.772;8.846;2023-05-07T04:23:25;3.60;;;3.40;;
253;SDS011;590;48.772;8.846;2023-05-07T04:25:53;2.90;;;2.70;;
253;SDS011;590;48.772;8.846;2023-05-07T04:28:21;3.43;;;2.93;;
253;SDS011;590;48.772;8.846;2023-05-07T04:30:49;3.50;;;3.30;;
253;SDS011;590;48.772;8.846;2023-05-07T04:33:19;3.40;;;3.20;;
253;SDS011;590;48.772;8.846;2023-05-07T04:35:46;3.10;;;2.90;;
253;SDS011;590;48.772;8.846;2023-05-07T04:38:14;3.37;;;3.17;;
253;SDS011;590;48.772;8.846;2023-05-07T04:40:44;2.80;;;2.60;;
253;SDS011;590;48.772;8.846;2023-05-07T04:43:13;2.93;;;2.73;;
253;SDS011;590;48.772;8.846;2023-05-07T04:45:41;2.90;;;2.70;;
253;SDS011;590;48.772;8.846;2023-05-07T04:48:09;3.03;;;2.83;;
253;SDS011;590;48.772;8.846;2023-05-07T04:50:39;3.47;;;3.27;;
253;SDS011;590;48.772;8.846;2023-05-07T04:53:07;2.97;;;2.77;;
253;SDS011;590;48.772;8.846;2023-05-07T04:55:34;3.63;;;3.43;;
253;SDS011;590;48.772;8.846;2023-05-07T04:58:02;3.90;;;3.70;;
253;SDS011;590;48.772;8.846;2023-05-07T05:00:31;3.93;;;3.73;;
253;SDS011;590;48.772;8.846;2023-05-07T05:02:59;3.23;;;3.03;;
253;SDS011;590;48.772;8.846;2023-05-07T05:05:27;2.90;;;2.70;;
253;SDS011;590;48.772;8.846;2023-05-07T05:07:57;3.07;;;2.87;;
253;SDS011;590;48.772;8.846;2023-05-07T05:10:25;3.00;;;2.80;;
253;SDS011;590;48.772;8.846;2023-05-07T05:12:53;3.30;;;3.10;;
253;SDS011;590;48.772;8.846;2023-05-07T05:15:21;3.77;;;3.57;;
253;SDS011;590;48.772;8.846;2023-05-07T05:17:49;3.73;;;3.53;;
253;SDS011;590;48.772;8.846;2023-05-07T05:20:17;3.27;;;3.07;;
253;SDS011;590;48.772;8.846;2023-05-07T05:22:45;3.23;;;3.03;;
253;SDS011;590;48.772;8.846;2023-05-07T05:25:15;3.30;;;3.10;;
253;SDS011;590;48.772;8.846;2023-05-07T05:27:43;3.93;;;3.73;;
253;SDS011;590;48.772;8.846;2023-05-07T05:30:11;3.70;;;3.50;;
253;SDS011;590;48.772;8.846;2023-05-07T05:32:40;3.83;;;3.47;;
253;SDS011;590;48.772;8.846;2023-05-07T05:35:08;3.77;;;3.57;;
253;SDS011;590;48.772;8.846;2023-05-07T05:37:36;4.00;;;3.80;;
253;SDS011;590;48.772;8.846;2023-05-07T05:40:04;4.17;;;3.93;;
253;SDS011;590;48.772;8.846;2023-05-07T05:42:34;3.83;;;3.63;;
253;SDS011;590;48.772;8.846;2023-05-07T05:45:03;3.70;;;3.50;;
253;SDS011;590;48.772;8.846;2023-05-07T05:47:31;4.33;;;4.03;;
253;SDS011;590;48.772;8.846;2023-05-07T05:49:59;4.13;;;3.90;;
253;SDS011;590;48.772;8.846;2023-05-07T05:52:27;4.00;;;3.63;;
253;SDS011;590;48.772;8.846;2023-05-07T05:54:55;4.27;;;4.00;;
253;SDS011;590;48.772;8.846;2023-05-07T05:57:23;4.33;;;4.03;;
253;SDS011;590;48.772;8.846;2023-05-07T05:59:55;4.30;;;4.00;;
253;SDS011;590;48.772;8.846;2023-05-07T06:02:23;4.17;;;3.93;;
253;SDS011;590;48.772;8.846;2023-05-07T06:04:51;3.50;;;3.30;;
253;SDS011;590;48.772;8.846;2023-05-07T06:07:19;3.50;;;3.30;;
253;SDS011;590;48.772;8.846;2023-05-07T06:09:47;3.23;;;3.03;;
253;SDS011;590;48.772;8.846;2023-05-07T06:12:15;3.90;;;3.70;;
253;SDS011;590;48.772;8.846;2023-05-07T06:14:43;3.23;;;3.03;;
253;SDS011;590;48.772;8.846;2023-05-07T06:17:13;3.37;;;3.17;;
253;SDS011;590;48.772;8.846;2023-05-07T06:19:41;3.40;;;3.20;;
253;SDS011;590;48.772;8.846;2023-05-07T06:22:09;3.70;;;3.50;;
253;SDS011;590;48.772;8.846;2023-05-07T06:24:37;3.73;;;3.53;;
253;SDS011;590;48.772;8.846;2023-05-07T06:27:04;4.10;;;3.90;;
253;SDS011;590;48.772;8.846;2023-05-07T06:29:32;4.60;;;3.47;;
253;SDS011;590;48.772;8.846;2023-05-07T06:32:07;4.00;;;3.80;;
253;SDS011;590;48.772;8.846;2023-05-07T06:34:37;3.50;;;3.30;;
253;SDS011;590;48.772;8.846;2023-05-07T06:37:06;4.40;;;3.30;;
253;SDS011;590;48.772;8.846;2023-05-07T06:39:34;3.70;;;3.50;;
253;SDS011;590;48.772;8.846;2023-05-07T06:42:02;4.60;;;4.30;;
253;SDS011;590;48.772;8.846;2023-05-07T06:44:31;3.63;;;3.43;;
253;SDS011;590;48.772;8.846;2023-05-07T06:46:59;3.20;;;3.00;;
253;SDS011;590;48.772;8.846;2023-05-07T06:49:27;5.70;;;3.30;;
253;SDS011;590;48.772;8.846;2023-05-07T06:51:56;3.50;;;3.30;;
253;SDS011;590;48.772;8.846;2023-05-07T06:54:25;3.47;;;3.27;;
253;SDS011;590;48.772;8.846;2023-05-07T06:56:53;3.40;;;3.20;;
253;SDS011;590;48.772;8.846;2023-05-07T06:59:20;3.20;;;3.00;;
253;SDS011;590;48.772;8.846;2023-05-07T07:01:48;3.53;;;3.33;;
253;SDS011;590;48.772;8.846;2023-05-07T07:04:16;3.50;;;3.30;;
253;SDS011;590;48.772;8.846;2023-05-07T07:06:45;3.40;;;3.20;;
253;SDS011;590;48.772;8.846;2023-05-07T07:09:14;3.60;;;3.07;;
253;SDS011;590;48.772;8.846;2023-05-07T07:11:43;4.23;;;3.97;;
253;SDS011;590;48.772;8.846;2023-05-07T07:14:11;4.40;;;4.10;;
253;SDS011;590;48.772;8.846;2023-05-07T07:16:39;3.57;;;3.37;;
253;SDS011;590;48.772;8.846;2023-05-07T07:19:07;3.60;;;3.40;;
253;SDS011;590;48.772;8.846;2023-05-07T07:21:35;3.60;;;3.40;;
253;SDS011;590;48.772;8.846;2023-05-07T07:24:03;3.17;;;2.97;;
253;SDS011;590;48.772;8.846;2023-05-07T07:26:33;2.90;;;2.70;;
253;SDS011;590;48.772;8.846;2023-05-07T07:29:01;3.03;;;2.83;;
253;SDS011;590;48.772;8.846;2023-05-07T07:31:29;3.30;;;3.10;;
253;SDS011;590;48.772;8.846;2023-05-07T07:33:57;3.73;;;3.53;;
253;SDS011;590;48.772;8.846;2023-05-07T07:36:25;3.33;;;3.13;;
253;SDS011;590;48.772;8.846;2023-05-07T07:39:11;4.80;;;4.50;;
253;SDS011;590;48.772;8.846;2023-05-07T07:41:40;3.40;;;3.20;;
253;SDS011;590;48.772;8.846;2023-05-07T07:44:08;6.80;;;4.13;;
253;SDS011;590;48.772;8.846;2023-05-07T07:46:41;3.57;;;3.37;;
253;SDS011;590;48.772;8.846;2023-05-07T07:49:09;3.97;;;3.77;;
253;SDS011;590;48.772;8.846;2023-05-07T07:51:37;3.50;;;3.30;;
253;SDS011;590;48.772;8.846;2023-05-07T07:54:06;4.07;;;3.87;;
253;SDS011;590;48.772;8.846;2023-05-07T07:56:34;2.97;;;2.77;;
253;SDS011;590;48.772;8.846;2023-05-07T07:59:03;3.97;;;3.77;;
253;SDS011;590;48.772;8.846;2023-05-07T08:01:31;2.90;;;2.70;;
253;SDS011;590;48.772;8.846;2023-05-07T08:03:59;3.53;;;3.33;;
253;SDS011;590;48.772;8.846;2023-05-07T08:06:29;2.67;;;2.47;;
253;SDS011;590;48.772;8.846;2023-05-07T08:08:57;3.40;;;3.20;;
253;SDS011;590;48.772;8.846;2023-05-07T08:11:25;3.50;;;3.33;;
253;SDS011;590;48.772;8.846;2023-05-07T08:13:54;3.17;;;2.97;;
253;SDS011;590;48.772;8.846;2023-05-07T08:16:24;4.10;;;3.40;;
253;SDS011;590;48.772;8.846;2023-05-07T08:18:52;3.70;;;2.90;;
253;SDS011;590;48.772;8.846;2023-05-07T08:21:20;3.10;;;2.90;;
253;SDS011;590;48.772;8.846;2023-05-07T08:23:49;3.07;;;2.87;;
253;SDS011;590;48.772;8.846;2023-05-07T08:26:16;3.03;;;2.83;;
253;SDS011;590;48.772;8.846;2023-05-07T08:28:44;2.83;;;2.63;;
253;SDS011;590;48.772;8.846;2023-05-07T08:31:12;3.37;;;3.17;;
253;SDS011;590;48.772;8.846;2023-05-07T08:33:42;3.80;;;3.60;;
253;SDS011;590;48.772;8.846;2023-05-07T08:36:10;3.33;;;3.13;;
253;SDS011;590;48.772;8.846;2023-05-07T08:38:38;3.00;;;2.80;;
253;SDS011;590;48.772;8.846;2023-05-07T08:41:09;3.00;;;2.80;;
253;SDS011;590;48.772;8.846;2023-05-07T08:43:38;3.30;;;2.80;;
253;SDS011;590;48.772;8.846;2023-05-07T08:46:09;3.20;;;3.00;;
253;SDS011;590;48.772;8.846;2023-05-07T08:48:37;2.73;;;2.53;;
253;SDS011;590;48.772;8.846;2023-05-07T08:51:08;2.97;;;2.77;;
253;SDS011;590;48.772;8.846;2023-05-07T08:53:39;3.00;;;2.80;;
253;SDS011;590;48.772;8.846;2023-05-07T08:56:08;3.30;;;3.10;;
253;SDS011;590;48.772;8.846;2023-05-07T08:58:37;2.90;;;2.70;;
253;SDS011;590;48.772;8.846;2023-05-07T09:01:07;2.90;;;2.70;;
253;SDS011;590;48.772;8.846;2023-05-07T09:03:36;3.10;;;2.90;;
253;SDS011;590;48.772;8.846;2023-05-07T09:06:07;2.77;;;2.57;;
253;SDS011;590;48.772;8.846;2023-05-07T09:08:35;2.83;;;2.60;;
253;SDS011;590;48.772;8.846;2023-05-07T09:11:03;2.63;;;2.43;;
253;SDS011;590;48.772;8.846;2023-05-07T09:13:31;2.97;;;2.77;;
253;SDS011;590;48.772;8.846;2023-05-07T09:16:01;2.70;;;2.27;;
253;SDS011;590;48.772;8.846;2023-05-07T09:18:41;3.37;;;3.17;;
253;SDS011;590;48.772;8.846;2023-05-07T09:21:11;2.90;;;2.70;;
253;SDS011;590;48.772;8.846;2023-05-07T09:23:41;3.13;;;2.93;;
253;SDS011;590;48.772;8.846;2023-05-07T09:26:10;3.77;;;2.80;;
253;SDS011;590;48.772;8.846;2023-05-07T09:28:39;2.97;;;2.77;;
253;SDS011;590;48.772;8.846;2023-05-07T09:31:08;2.70;;;2.50;;
253;SDS011;590;48.772;8.846;2023-05-07T09:33:37;3.37;;;2.53;;
253;SDS011;590;48.772;8.846;2023-05-07T09:36:06;3.40;;;3.20;;
253;SDS011;590;48.772;8.846;2023-05-07T09:38:37;3.00;;;2.80;;
253;SDS011;590;48.772;8.846;2023-05-07T09:41:06;2.87;;;2.67;;
253;SDS011;590;48.772;8.846;2023-05-07T09:43:35;2.73;;;2.53;;
253;SDS011;590;48.772;8.846;2023-05-07T09:46:08;2.57;;;2.37;;
253;SDS011;590;48.772;8.846;2023-05-07T09:48:41;4.40;;;3.20;;
253;SDS011;590;48.772;8.846;2023-05-07T09:51:13;2.70;;;2.50;;
253;SDS011;590;48.772;8.846;2023-05-07T09:53:47;3.07;;;2.87;;
253;SDS011;590;48.772;8.846;2023-05-07T09:56:17;3.30;;;3.10;;
253;SDS011;590;48.772;8.846;2023-05-07T09:58:47;2.90;;;2.70;;
253;SDS011;590;48.772;8.846;2023-05-07T10:01:18;3.90;;;3.17;;
253;SDS011;590;48.772;8.846;2023-05-07T10:03:48;3.00;;;2.80;;
253;SDS011;590;48.772;8.846;2023-05-07T10:06:19;3.37;;;3.17;;
253;SDS011;590;48.772;8.846;2023-05-07T10:08:48;3.60;;;2.80;;
253;SDS011;590;48.772;8.846;2023-05-07T10:11:17;3.00;;;2.80;;
253;SDS011;590;48.772;8.846;2023-05-07T10:13:46;2.90;;;2.70;;
253;SDS011;590;48.772;8.846;2023-05-07T10:16:15;3.80;;;3.10;;
253;SDS011;590;48.772;8.846;2023-05-07T10:18:44;3.63;;;3.40;;
253;SDS011;590;48.772;8.846;2023-05-07T10:21:16;2.80;;;2.60;;
253;SDS011;590;48.772;8.846;2023-05-07T10:23:45;4.10;;;3.27;;
253;SDS011;590;48.772;8.846;2023-05-07T10:26:18;3.70;;;3.50;;
253;SDS011;590;48.772;8.846;2023-05-07T10:28:51;3.30;;;3.10;;
253;SDS011;590;48.772;8.846;2023-05-07T10:31:28;3.10;;;2.90;;
253;SDS011;590;48.772;8.846;2023-05-07T10:34:16;2.67;;;2.50;;
253;SDS011;590;48.772;8.846;2023-05-07T10:36:48;3.53;;;3.33;;
253;SDS011;590;48.772;8.846;2023-05-07T10:39:18;2.93;;;2.77;;
253;SDS011;590;48.772;8.846;2023-05-07T10:41:49;3.20;;;3.00;;
253;SDS011;590;48.772;8.846;2023-05-07T10:44:26;3.13;;;3.00;;
253;SDS011;590;48.772;8.846;2023-05-07T10:47:04;3.10;;;2.90;;
253;SDS011;590;48.772;8.846;2023-05-07T10:49:37;3.10;;;2.90;;
253;SDS011;590;48.772;8.846;2023-05-07T10:52:38;3.00;;;2.80;;
253;SDS011;590;48.772;8.846;2023-05-07T10:55:19;3.37;;;3.17;;
253;SDS011;590;48.772;8.846;2023-05-07T10:57:48;3.93;;;3.73;;
253;SDS011;590;48.772;8.846;2023-05-07T11:03:08;3.07;;;2.87;;
253;SDS011;590;48.772;8.846;2023-05-07T11:05:38;3.40;;;3.20;;
253;SDS011;590;48.772;8.846;2023-05-07T11:08:08;3.20;;;3.00;;
253;SDS011;590;48.772;8.846;2023-05-07T11:13:41;3.87;;;3.67;;
253;SDS011;590;48.772;8.846;2023-05-07T11:16:17;4.00;;;3.80;;
253;SDS011;590;48.772;8.846;2023-05-07T11:18:46;4.17;;;3.93;;
253;SDS011;590;48.772;8.846;2023-05-07T11:24:01;3.97;;;3.77;;
253;SDS011;590;48.772;8.846;2023-05-07T11:26:30;4.13;;;3.90;;
253;SDS011;590;48.772;8.846;2023-05-07T11:29:11;3.50;;;3.30;;
253;SDS011;590;48.772;8.846;2023-05-07T11:31:41;3.63;;;3.43;;
253;SDS011;590;48.772;8.846;2023-05-07T11:34:10;4.03;;;3.83;;
253;SDS011;590;48.772;8.846;2023-05-07T11:36:41;3.27;;;3.07;;
253;SDS011;590;48.772;8.846;2023-05-07T11:39:28;4.00;;;3.80;;
253;SDS011;590;48.772;8.846;2023-05-07T11:41:57;3.70;;;3.50;;
253;SDS011;590;48.772;8.846;2023-05-07T11:44:38;4.43;;;4.13;;
253;SDS011;590;48.772;8.846;2023-05-07T11:47:10;3.97;;;3.77;;
253;SDS011;590;48.772;8.846;2023-05-07T11:49:38;4.10;;;3.40;;
253;SDS011;590;48.772;8.846;2023-05-07T11:52:06;6.83;;;4.47;;
253;SDS011;590;48.772;8.846;2023-05-07T11:54:36;3.83;;;3.63;;
253;SDS011;590;48.772;8.846;2023-05-07T11:57:04;4.60;;;4.30;;
253;SDS011;590;48.772;8.846;2023-05-07T11:59:38;4.53;;;4.23;;
253;SDS011;590;48.772;8.846;2023-05-07T12:02:07;4.67;;;4.37;;
253;SDS011;590;48.772;8.846;2023-05-07T12:04:37;5.13;;;4.83;;
253;SDS011;590;48.772;8.846;2023-05-07T12:07:05;4.90;;;4.60;;
253;SDS011;590;48.772;8.846;2023-05-07T12:09:39;5.60;;;5.30;;
253;SDS011;590;48.772;8.846;2023-05-07T12:12:07;5.77;;;5.47;;
253;SDS011;590;48.772;8.846;2023-05-07T12:14:45;4.83;;;4.53;;
253;SDS011;590;48.772;8.846;2023-05-07T12:17:13;5.10;;;4.80;;
253;SDS011;590;48.772;8.846;2023-05-07T12:19:43;5.13;;;4.83;;
253;SDS011;590;48.772;8.846;2023-05-07T12:22:11;5.73;;;5.43;;
253;SDS011;590;48.772;8.846;2023-05-07T12:24:45;4.33;;;4.03;;
253;SDS011;590;48.772;8.846;2023-05-07T12:27:14;4.80;;;4.50;;
253;SDS011;590;48.772;8.846;2023-05-07T12:29:43;4.40;;;4.10;;
253;SDS011;590;48.772;8.846;2023-05-07T12:32:13;4.97;;;4.67;;
253;SDS011;590;48.772;8.846;2023-05-07T12:34:42;4.57;;;4.27;;
253;SDS011;590;48.772;8.846;2023-05-07T12:37:11;5.00;;;4.70;;
253;SDS011;590;48.772;8.846;2023-05-07T12:39:46;4.80;;;4.50;;
253;SDS011;590;48.772;8.846;2023-05-07T12:42:15;4.67;;;4.13;;
253;SDS011;590;48.772;8.846;2023-05-07T12:44:52;5.53;;;4.10;;
253;SDS011;590;48.772;8.846;2023-05-07T12:47:20;4.83;;;4.53;;
253;SDS011;590;48.772;8.846;2023-05-07T12:49:48;4.93;;;4.63;;
253;SDS011;590;48.772;8.846;2023-05-07T12:52:17;4.87;;;4.57;;
253;SDS011;590;48.772;8.846;2023-05-07T12:54:47;4.50;;;4.20;;
253;SDS011;590;48.772;8.846;2023-05-07T12:57:15;5.60;;;5.30;;
253;SDS011;590;48.772;8.846;2023-05-07T12:59:47;4.00;;;3.80;;
253;SDS011;590;48.772;8.846;2023-05-07T13:02:15;4.70;;;4.40;;
253;SDS011;590;48.772;8.846;2023-05-07T13:04:43;3.53;;;3.33;;
253;SDS011;590;48.772;8.846;2023-05-07T13:07:11;3.90;;;3.10;;
253;SDS011;590;48.772;8.846;2023-05-07T13:09:39;3.03;;;2.83;;
253;SDS011;590;48.772;8.846;2023-05-07T13:12:09;4.03;;;3.63;;
253;SDS011;590;48.772;8.846;2023-05-07T13:14:37;3.50;;;3.30;;
253;SDS011;590;48.772;8.846;2023-05-07T13:17:05;3.77;;;3.57;;
253;SDS011;590;48.772;8.846;2023-05-07T13:19:33;3.57;;;3.37;;
253;SDS011;590;48.772;8.846;2023-05-07T13:22:03;2.50;;;2.30;;
253;SDS011;590;48.772;8.846;2023-05-07T13:24:31;2.60;;;2.43;;
253;SDS011;590;48.772;8.846;2023-05-07T13:26:59;2.60;;;2.40;;
253;SDS011;590;48.772;8.846;2023-05-07T13:29:29;3.00;;;2.80;;
253;SDS011;590;48.772;8.846;2023-05-07T13:31:58;2.40;;;2.20;;
253;SDS011;590;48.772;8.846;2023-05-07T13:34:27;2.60;;;2.40;;
253;SDS011;590;48.772;8.846;2023-05-07T13:36:55;2.53;;;2.33;;
253;SDS011;590;48.772;8.846;2023-05-07T13:39:23;2.53;;;2.40;;
253;SDS011;590;48.772;8.846;2023-05-07T13:41:51;2.40;;;2.20;;
253;SDS011;590;48.772;8.846;2023-05-07T13:44:19;2.50;;;2.00;;
253;SDS011;590;48.772;8.846;2023-05-07T13:46:48;2.30;;;2.10;;
253;SDS011;590;48.772;8.846;2023-05-07T13:49:17;2.20;;;2.00;;
253;SDS011;590;48.772;8.846;2023-05-07T13:51:45;4.73;;;2.83;;
253;SDS011;590;48.772;8.846;2023-05-07T13:54:13;2.60;;;2.40;;
253;SDS011;590;48.772;8.846;2023-05-07T13:56:42;2.50;;;2.30;;
253;SDS011;590;48.772;8.846;2023-05-07T13:59:10;2.97;;;2.40;;
253;SDS011;590;48.772;8.846;2023-05-07T14:01:40;4.73;;;2.63;;
253;SDS011;590;48.772;8.846;2023-05-07T14:04:09;2.97;;;2.80;;
253;SDS011;590;48.772;8.846;2023-05-07T14:06:37;3.07;;;2.73;;
253;SDS011;590;48.772;8.846;2023-05-07T14:09:06;2.80;;;2.60;;
253;SDS011;590;48.772;8.846;2023-05-07T14:11:34;3.00;;;2.80;;
253;SDS011;590;48.772;8.846;2023-05-07T14:14:02;3.23;;;2.90;;
253;SDS011;590;48.772;8.846;2023-05-07T14:16:30;3.07;;;2.87;;
253;SDS011;590;48.772;8.846;2023-05-07T14:18:58;4.43;;;3.00;;
253;SDS011;590;48.772;8.846;2023-05-07T14:21:27;4.63;;;2.90;;
253;SDS011;590;48.772;8.846;2023-05-07T14:23:57;3.37;;;3.00;;
253;SDS011;590;48.772;8.846;2023-05-07T14:26:26;3.33;;;3.13;;
253;SDS011;590;48.772;8.846;2023-05-07T14:28:54;4.00;;;3.70;;
253;SDS011;590;48.772;8.846;2023-05-07T14:31:24;4.50;;;3.97;;
253;SDS011;590;48.772;8.846;2023-05-07T14:33:53;2.90;;;2.70;;
253;SDS011;590;48.772;8.846;2023-05-07T14:36:21;3.63;;;3.00;;
253;SDS011;590;48.772;8.846;2023-05-07T14:38:50;3.40;;;3.17;;
253;SDS011;590;48.772;8.846;2023-05-07T14:41:18;3.10;;;2.80;;
253;SDS011;590;48.772;8.846;2023-05-07T14:43:47;4.30;;;3.27;;
253;SDS011;590;48.772;8.846;2023-05-07T14:46:17;3.83;;;3.63;;
253;SDS011;590;48.772;8.846;2023-05-07T14:48:45;3.00;;;2.60;;
253;SDS011;590;48.772;8.846;2023-05-07T14:51:13;3.40;;;3.23;;
253;SDS011;590;48.772;8.846;2023-05-07T14:53:41;3.83;;;3.63;;
253;SDS011;590;48.772;8.846;2023-05-07T14:56:10;5.50;;;4.07;;
253;SDS011;590;48.772;8.846;2023-05-07T14:58:39;4.07;;;3.87;;
253;SDS011;590;48.772;8.846;2023-05-07T15:01:07;4.43;;;4.00;;
253;SDS011;590;48.772;8.846;2023-05-07T15:03:35;3.87;;;3.67;;
253;SDS011;590;48.772;8.846;2023-05-07T15:06:03;5.20;;;4.90;;
253;SDS011;590;48.772;8.846;2023-05-07T15:08:31;4.80;;;4.50;;
253;SDS011;590;48.772;8.846;2023-05-07T15:10:59;3.83;;;3.60;;
253;SDS011;590;48.772;8.846;2023-05-07T15:13:29;4.27;;;3.73;;
253;SDS011;590;48.772;8.846;2023-05-07T15:15:57;4.40;;;4.10;;
253;SDS011;590;48.772;8.846;2023-05-07T15:18:25;3.70;;;3.50;;
253;SDS011;590;48.772;8.846;2023-05-07T15:20:53;4.73;;;3.97;;
253;SDS011;590;48.772;8.846;2023-05-07T15:23:22;3.67;;;3.00;;
253;SDS011;590;48.772;8.846;2023-05-07T15:25:50;3.90;;;3.20;;
253;SDS011;590;48.772;8.846;2023-05-07T15:28:18;3.73;;;3.53;;
253;SDS011;590;48.772;8.846;2023-05-07T15:30:48;2.77;;;2.57;;
253;SDS011;590;48.772;8.846;2023-05-07T15:33:16;2.90;;;2.70;;
253;SDS011;590;48.772;8.846;2023-05-07T15:35:44;3.07;;;2.90;;
253;SDS011;590;48.772;8.846;2023-05-07T15:38:12;3.10;;;2.60;;
253;SDS011;590;48.772;8.846;2023-05-07T15:40:40;2.70;;;2.10;;
253;SDS011;590;48.772;8.846;2023-05-07T15:43:08;4.10;;;2.80;;
253;SDS011;590;48.772;8.846;2023-05-07T15:45:38;2.90;;;2.70;;
253;SDS011;590;48.772;8.846;2023-05-07T15:48:08;3.03;;;2.83;;
253;SDS011;590;48.772;8.846;2023-05-07T15:50:37;3.33;;;2.93;;
253;SDS011;590;48.772;8.846;2023-05-07T15:53:05;2.70;;;2.50;;
253;SDS011;590;48.772;8.846;2023-05-07T15:55:33;5.33;;;2.97;;
253;SDS011;590;48.772;8.846;2023-05-07T15:58:01;2.70;;;2.60;;
253;SDS011;590;48.772;8.846;2023-05-07T16:00:31;4.63;;;2.33;;
253;SDS011;590;48.772;8.846;2023-05-07T16:03:01;3.93;;;2.97;;
253;SDS011;590;48.772;8.846;2023-05-07T16:05:31;3.50;;;3.30;;